sensor_id;sensor_type;location;lat;lon;timestamp;P1;durP1;ratioP1;P2;durP2;ratioP2
9819;SDS011;4949;48.482;9.206;2022-12-18T00:04:15;42.40;;;26.27;;
9819;SDS011;4949;48.482;9.206;2022-12-18T00:09:21;36.83;;;22.63;;
9819;SDS011;4949;48.482;9.206;2022-12-18T00:14:22;36.07;;;22.70;;
9819;SDS011;4949;48.482;9.206;2022-12-18T00:19:26;34.70;;;22.93;;
9819;SDS011;4949;48.482;9.206;2022-12-18T00:24:29;38.17;;;22.07;;
9819;SDS011;4949;48.482;9.206;2022-12-18T00:29:30;35.90;;;21.57;;
9819;SDS011;4949;48.482;9.206;2022-12-18T00:34:33;39.03;;;22.70;;
9819;SDS011;4949;48.482;9.206;2022-12-18T00:39:34;45.77;;;24.73;;
9819;SDS011;4949;48.482;9.206;2022-12-18T00:44:37;34.70;;;22.13;;
9819;SDS011;4949;48.482;9.206;2022-12-18T00:49:38;35.47;;;21.87;;
9819;SDS011;4949;48.482;9.206;2022-12-18T00:54:38;39.10;;;21.40;;
9819;SDS011;4949;48.482;9.206;2022-12-18T00:59:39;33.77;;;21.60;;
9819;SDS011;4949;48.482;9.206;2022-12-18T01:04:40;38.90;;;23.90;;
9819;SDS011;4949;48.482;9.206;2022-12-18T01:09:40;37.10;;;21.97;;
9819;SDS011;4949;48.482;9.206;2022-12-18T01:14:41;41.47;;;23.53;;
9819;SDS011;4949;48.482;9.206;2022-12-18T01:19:42;38.77;;;22.40;;
9819;SDS011;4949;48.482;9.206;2022-12-18T01:24:43;31.33;;;20.80;;
9819;SDS011;4949;48.482;9.206;2022-12-18T01:29:43;36.13;;;22.63;;
9819;SDS011;4949;48.482;9.206;2022-12-18T01:34:44;42.30;;;22.90;;
9819;SDS011;4949;48.482;9.206;2022-12-18T01:39:45;29.53;;;23.20;;
9819;SDS011;4949;48.482;9.206;2022-12-18T01:45:00;32.37;;;22.50;;
9819;SDS011;4949;48.482;9.206;2022-12-18T01:55:40;36.63;;;22.37;;
9819;SDS011;4949;48.482;9.206;2022-12-18T02:00:51;39.90;;;23.17;;
9819;SDS011;4949;48.482;9.206;2022-12-18T02:11:40;31.30;;;20.17;;
9819;SDS011;4949;48.482;9.206;2022-12-18T02:16:47;32.17;;;19.83;;
9819;SDS011;4949;48.482;9.206;2022-12-18T02:22:19;38.90;;;24.07;;
9819;SDS011;4949;48.482;9.206;2022-12-18T02:27:38;30.13;;;19.17;;
9819;SDS011;4949;48.482;9.206;2022-12-18T02:32:42;34.50;;;20.23;;
9819;SDS011;4949;48.482;9.206;2022-12-18T02:37:51;28.17;;;19.73;;
9819;SDS011;4949;48.482;9.206;2022-12-18T02:42:53;37.77;;;22.93;;
9819;SDS011;4949;48.482;9.206;2022-12-18T02:47:54;28.63;;;20.50;;
9819;SDS011;4949;48.482;9.206;2022-12-18T03:03:19;28.40;;;18.60;;
9819;SDS011;4949;48.482;9.206;2022-12-18T03:08:37;31.83;;;18.77;;
9819;SDS011;4949;48.482;9.206;2022-12-18T03:13:54;28.97;;;18.27;;
9819;SDS011;4949;48.482;9.206;2022-12-18T03:19:01;27.93;;;19.60;;
9819;SDS011;4949;48.482;9.206;2022-12-18T03:24:14;27.43;;;17.40;;
9819;SDS011;4949;48.482;9.206;2022-12-18T03:29:18;31.80;;;20.90;;
9819;SDS011;4949;48.482;9.206;2022-12-18T03:34:27;32.23;;;19.73;;
9819;SDS011;4949;48.482;9.206;2022-12-18T03:39:34;31.17;;;20.20;;
9819;SDS011;4949;48.482;9.206;2022-12-18T03:44:37;30.73;;;19.40;;
9819;SDS011;4949;48.482;9.206;2022-12-18T03:55:18;38.60;;;18.80;;
9819;SDS011;4949;48.482;9.206;2022-12-18T04:00:21;31.77;;;20.23;;
9819;SDS011;4949;48.482;9.206;2022-12-18T04:05:22;29.33;;;18.47;;
9819;SDS011;4949;48.482;9.206;2022-12-18T04:10:28;30.30;;;19.17;;
9819;SDS011;4949;48.482;9.206;2022-12-18T04:15:33;36.40;;;19.40;;
9819;SDS011;4949;48.482;9.206;2022-12-18T04:20:38;29.77;;;18.87;;
9819;SDS011;4949;48.482;9.206;2022-12-18T04:25:38;29.80;;;18.70;;
9819;SDS011;4949;48.482;9.206;2022-12-18T04:30:39;27.40;;;18.60;;
9819;SDS011;4949;48.482;9.206;2022-12-18T04:35:42;26.90;;;18.30;;
9819;SDS011;4949;48.482;9.206;2022-12-18T04:40:43;30.53;;;17.23;;
9819;SDS011;4949;48.482;9.206;2022-12-18T04:45:44;30.40;;;18.60;;
9819;SDS011;4949;48.482;9.206;2022-12-18T04:50:47;32.17;;;21.57;;
9819;SDS011;4949;48.482;9.206;2022-12-18T04:55:48;29.60;;;17.60;;
9819;SDS011;4949;48.482;9.206;2022-12-18T05:00:49;31.27;;;19.60;;
9819;SDS011;4949;48.482;9.206;2022-12-18T05:05:50;29.50;;;18.73;;
9819;SDS011;4949;48.482;9.206;2022-12-18T05:10:58;31.30;;;17.27;;
9819;SDS011;4949;48.482;9.206;2022-12-18T05:16:00;29.83;;;17.40;;
9819;SDS011;4949;48.482;9.206;2022-12-18T05:21:02;25.90;;;17.23;;
9819;SDS011;4949;48.482;9.206;2022-12-18T05:26:04;29.80;;;18.67;;
9819;SDS011;4949;48.482;9.206;2022-12-18T05:31:06;32.53;;;19.73;;
9819;SDS011;4949;48.482;9.206;2022-12-18T05:36:07;29.27;;;18.07;;
9819;SDS011;4949;48.482;9.206;2022-12-18T05:41:09;33.37;;;19.27;;
9819;SDS011;4949;48.482;9.206;2022-12-18T05:46:13;25.50;;;16.80;;
9819;SDS011;4949;48.482;9.206;2022-12-18T05:51:19;25.47;;;16.60;;
9819;SDS011;4949;48.482;9.206;2022-12-18T05:56:21;26.30;;;16.50;;
9819;SDS011;4949;48.482;9.206;2022-12-18T06:01:24;25.30;;;16.93;;
9819;SDS011;4949;48.482;9.206;2022-12-18T06:06:28;23.50;;;15.33;;
9819;SDS011;4949;48.482;9.206;2022-12-18T06:11:29;27.93;;;15.73;;
9819;SDS011;4949;48.482;9.206;2022-12-18T06:16:30;30.87;;;16.57;;
9819;SDS011;4949;48.482;9.206;2022-12-18T06:21:31;26.10;;;16.03;;
9819;SDS011;4949;48.482;9.206;2022-12-18T06:26:33;31.27;;;16.20;;
9819;SDS011;4949;48.482;9.206;2022-12-18T06:31:36;23.53;;;16.17;;
9819;SDS011;4949;48.482;9.206;2022-12-18T06:36:37;26.50;;;16.80;;
9819;SDS011;4949;48.482;9.206;2022-12-18T06:41:40;21.97;;;13.83;;
9819;SDS011;4949;48.482;9.206;2022-12-18T06:46:41;24.17;;;13.20;;
9819;SDS011;4949;48.482;9.206;2022-12-18T06:51:41;26.73;;;16.93;;
9819;SDS011;4949;48.482;9.206;2022-12-18T06:56:45;22.40;;;15.10;;
9819;SDS011;4949;48.482;9.206;2022-12-18T07:01:46;20.10;;;15.00;;
9819;SDS011;4949;48.482;9.206;2022-12-18T07:06:49;21.70;;;15.37;;
9819;SDS011;4949;48.482;9.206;2022-12-18T07:11:50;21.57;;;14.37;;
9819;SDS011;4949;48.482;9.206;2022-12-18T07:16:50;22.53;;;14.03;;
9819;SDS011;4949;48.482;9.206;2022-12-18T07:21:51;25.47;;;15.90;;
9819;SDS011;4949;48.482;9.206;2022-12-18T07:26:52;23.93;;;16.97;;
9819;SDS011;4949;48.482;9.206;2022-12-18T07:31:53;23.03;;;15.43;;
9819;SDS011;4949;48.482;9.206;2022-12-18T07:36:56;32.67;;;18.50;;
9819;SDS011;4949;48.482;9.206;2022-12-18T07:41:56;29.10;;;17.07;;
9819;SDS011;4949;48.482;9.206;2022-12-18T07:47:17;30.93;;;18.50;;
9819;SDS011;4949;48.482;9.206;2022-12-18T07:52:18;28.47;;;17.60;;
9819;SDS011;4949;48.482;9.206;2022-12-18T07:57:19;29.37;;;19.00;;
9819;SDS011;4949;48.482;9.206;2022-12-18T08:02:20;28.97;;;17.70;;
9819;SDS011;4949;48.482;9.206;2022-12-18T08:07:20;36.80;;;19.20;;
9819;SDS011;4949;48.482;9.206;2022-12-18T08:12:21;30.20;;;19.67;;
9819;SDS011;4949;48.482;9.206;2022-12-18T08:17:22;28.87;;;20.13;;
9819;SDS011;4949;48.482;9.206;2022-12-18T08:22:22;25.17;;;18.10;;
9819;SDS011;4949;48.482;9.206;2022-12-18T08:27:29;33.77;;;19.33;;
9819;SDS011;4949;48.482;9.206;2022-12-18T08:32:30;31.67;;;18.30;;
9819;SDS011;4949;48.482;9.206;2022-12-18T08:37:32;27.13;;;19.50;;
9819;SDS011;4949;48.482;9.206;2022-12-18T08:42:33;29.23;;;18.20;;
9819;SDS011;4949;48.482;9.206;2022-12-18T08:47:55;38.30;;;20.10;;
9819;SDS011;4949;48.482;9.206;2022-12-18T08:52:56;33.33;;;19.07;;
9819;SDS011;4949;48.482;9.206;2022-12-18T08:57:57;33.57;;;18.73;;
9819;SDS011;4949;48.482;9.206;2022-12-18T09:02:58;24.50;;;16.77;;
9819;SDS011;4949;48.482;9.206;2022-12-18T09:07:58;25.37;;;15.97;;
9819;SDS011;4949;48.482;9.206;2022-12-18T09:13:02;29.20;;;17.67;;
9819;SDS011;4949;48.482;9.206;2022-12-18T09:18:05;26.13;;;17.80;;
9819;SDS011;4949;48.482;9.206;2022-12-18T09:23:08;27.83;;;19.27;;
9819;SDS011;4949;48.482;9.206;2022-12-18T09:28:15;27.77;;;18.30;;
9819;SDS011;4949;48.482;9.206;2022-12-18T09:33:18;32.30;;;18.30;;
9819;SDS011;4949;48.482;9.206;2022-12-18T09:38:18;31.63;;;17.87;;
9819;SDS011;4949;48.482;9.206;2022-12-18T09:43:24;25.17;;;16.97;;
9819;SDS011;4949;48.482;9.206;2022-12-18T09:48:36;30.50;;;17.07;;
9819;SDS011;4949;48.482;9.206;2022-12-18T09:53:44;29.40;;;16.83;;
9819;SDS011;4949;48.482;9.206;2022-12-18T09:58:55;30.77;;;19.70;;
9819;SDS011;4949;48.482;9.206;2022-12-18T10:03:58;29.23;;;18.67;;
9819;SDS011;4949;48.482;9.206;2022-12-18T10:14:46;31.30;;;18.87;;
9819;SDS011;4949;48.482;9.206;2022-12-18T10:19:56;31.57;;;23.40;;
9819;SDS011;4949;48.482;9.206;2022-12-18T10:25:38;31.53;;;23.50;;
9819;SDS011;4949;48.482;9.206;2022-12-18T10:30:56;37.00;;;25.17;;
9819;SDS011;4949;48.482;9.206;2022-12-18T10:35:59;35.57;;;24.30;;
9819;SDS011;4949;48.482;9.206;2022-12-18T10:41:01;30.40;;;21.40;;
9819;SDS011;4949;48.482;9.206;2022-12-18T10:51:08;34.70;;;22.83;;
9819;SDS011;4949;48.482;9.206;2022-12-18T10:56:18;31.50;;;20.73;;
9819;SDS011;4949;48.482;9.206;2022-12-18T11:01:20;34.17;;;22.53;;
9819;SDS011;4949;48.482;9.206;2022-12-18T11:06:22;31.43;;;21.90;;
9819;SDS011;4949;48.482;9.206;2022-12-18T11:11:24;32.17;;;21.67;;
9819;SDS011;4949;48.482;9.206;2022-12-18T11:16:29;32.10;;;22.40;;
9819;SDS011;4949;48.482;9.206;2022-12-18T11:21:43;30.20;;;19.93;;
9819;SDS011;4949;48.482;9.206;2022-12-18T11:26:44;34.20;;;20.70;;
9819;SDS011;4949;48.482;9.206;2022-12-18T11:31:45;31.40;;;19.60;;
9819;SDS011;4949;48.482;9.206;2022-12-18T11:36:48;33.37;;;19.50;;
9819;SDS011;4949;48.482;9.206;2022-12-18T11:42:00;34.27;;;20.90;;
9819;SDS011;4949;48.482;9.206;2022-12-18T11:47:15;26.90;;;18.10;;
9819;SDS011;4949;48.482;9.206;2022-12-18T11:52:19;36.33;;;22.73;;
9819;SDS011;4949;48.482;9.206;2022-12-18T11:57:34;32.60;;;21.37;;
9819;SDS011;4949;48.482;9.206;2022-12-18T12:08:53;30.67;;;23.97;;
9819;SDS011;4949;48.482;9.206;2022-12-18T12:30:22;27.93;;;20.23;;
9819;SDS011;4949;48.482;9.206;2022-12-18T12:35:58;33.50;;;18.53;;
9819;SDS011;4949;48.482;9.206;2022-12-18T12:41:06;23.47;;;15.93;;
9819;SDS011;4949;48.482;9.206;2022-12-18T12:46:32;26.33;;;12.90;;
9819;SDS011;4949;48.482;9.206;2022-12-18T12:51:39;25.40;;;15.07;;
9819;SDS011;4949;48.482;9.206;2022-12-18T12:56:49;27.93;;;13.87;;
9819;SDS011;4949;48.482;9.206;2022-12-18T13:02:01;29.17;;;17.87;;
9819;SDS011;4949;48.482;9.206;2022-12-18T13:13:04;30.17;;;20.87;;
9819;SDS011;4949;48.482;9.206;2022-12-18T13:18:22;35.77;;;23.40;;
9819;SDS011;4949;48.482;9.206;2022-12-18T13:23:36;35.27;;;22.67;;
9819;SDS011;4949;48.482;9.206;2022-12-18T13:28:56;36.77;;;24.00;;
9819;SDS011;4949;48.482;9.206;2022-12-18T13:39:32;35.03;;;22.30;;
9819;SDS011;4949;48.482;9.206;2022-12-18T13:44:38;37.77;;;23.50;;
9819;SDS011;4949;48.482;9.206;2022-12-18T13:49:43;36.23;;;21.80;;
9819;SDS011;4949;48.482;9.206;2022-12-18T13:54:45;33.57;;;21.03;;
9819;SDS011;4949;48.482;9.206;2022-12-18T13:59:51;30.07;;;18.70;;
9819;SDS011;4949;48.482;9.206;2022-12-18T14:04:54;25.33;;;14.80;;
9819;SDS011;4949;48.482;9.206;2022-12-18T14:09:56;27.70;;;16.60;;
9819;SDS011;4949;48.482;9.206;2022-12-18T14:14:59;22.17;;;13.80;;
9819;SDS011;4949;48.482;9.206;2022-12-18T14:20:03;31.03;;;16.47;;
9819;SDS011;4949;48.482;9.206;2022-12-18T14:30:40;33.27;;;16.47;;
9819;SDS011;4949;48.482;9.206;2022-12-18T14:35:57;22.83;;;13.43;;
9819;SDS011;4949;48.482;9.206;2022-12-18T14:41:09;32.10;;;17.00;;
9819;SDS011;4949;48.482;9.206;2022-12-18T14:46:46;33.43;;;14.50;;
9819;SDS011;4949;48.482;9.206;2022-12-18T14:51:48;21.30;;;14.20;;
9819;SDS011;4949;48.482;9.206;2022-12-18T14:57:00;25.77;;;14.77;;
9819;SDS011;4949;48.482;9.206;2022-12-18T15:07:21;26.00;;;14.90;;
9819;SDS011;4949;48.482;9.206;2022-12-18T15:12:34;28.83;;;13.03;;
9819;SDS011;4949;48.482;9.206;2022-12-18T15:17:37;25.60;;;14.17;;
9819;SDS011;4949;48.482;9.206;2022-12-18T15:22:37;22.37;;;14.43;;
9819;SDS011;4949;48.482;9.206;2022-12-18T15:27:38;25.67;;;14.50;;
9819;SDS011;4949;48.482;9.206;2022-12-18T15:32:46;24.53;;;15.10;;
9819;SDS011;4949;48.482;9.206;2022-12-18T15:37:49;29.47;;;15.67;;
9819;SDS011;4949;48.482;9.206;2022-12-18T15:42:52;25.00;;;14.57;;
9819;SDS011;4949;48.482;9.206;2022-12-18T15:48:20;27.60;;;14.90;;
9819;SDS011;4949;48.482;9.206;2022-12-18T15:53:23;26.47;;;14.67;;
9819;SDS011;4949;48.482;9.206;2022-12-18T15:58:31;22.37;;;14.60;;
9819;SDS011;4949;48.482;9.206;2022-12-18T16:03:35;25.93;;;15.20;;
9819;SDS011;4949;48.482;9.206;2022-12-18T16:08:36;25.57;;;15.90;;
9819;SDS011;4949;48.482;9.206;2022-12-18T16:13:39;25.17;;;14.33;;
9819;SDS011;4949;48.482;9.206;2022-12-18T16:18:39;24.03;;;13.37;;
9819;SDS011;4949;48.482;9.206;2022-12-18T16:23:40;28.57;;;13.87;;
9819;SDS011;4949;48.482;9.206;2022-12-18T16:28:41;29.30;;;16.30;;
9819;SDS011;4949;48.482;9.206;2022-12-18T16:33:44;19.00;;;14.70;;
9819;SDS011;4949;48.482;9.206;2022-12-18T16:38:45;21.20;;;12.63;;
9819;SDS011;4949;48.482;9.206;2022-12-18T16:43:46;26.30;;;16.30;;
9819;SDS011;4949;48.482;9.206;2022-12-18T16:48:46;27.23;;;15.10;;
9819;SDS011;4949;48.482;9.206;2022-12-18T16:53:47;26.80;;;12.70;;
9819;SDS011;4949;48.482;9.206;2022-12-18T16:58:52;22.03;;;13.40;;
9819;SDS011;4949;48.482;9.206;2022-12-18T17:03:56;34.50;;;16.60;;
9819;SDS011;4949;48.482;9.206;2022-12-18T17:09:00;22.00;;;13.63;;
9819;SDS011;4949;48.482;9.206;2022-12-18T17:14:05;22.83;;;12.50;;
9819;SDS011;4949;48.482;9.206;2022-12-18T17:19:12;29.80;;;16.17;;
9819;SDS011;4949;48.482;9.206;2022-12-18T17:24:14;28.50;;;14.57;;
9819;SDS011;4949;48.482;9.206;2022-12-18T17:29:18;23.73;;;12.90;;
9819;SDS011;4949;48.482;9.206;2022-12-18T17:34:22;20.30;;;12.50;;
9819;SDS011;4949;48.482;9.206;2022-12-18T17:39:23;35.73;;;16.90;;
9819;SDS011;4949;48.482;9.206;2022-12-18T17:44:27;29.57;;;17.07;;
9819;SDS011;4949;48.482;9.206;2022-12-18T17:49:30;28.10;;;19.10;;
9819;SDS011;4949;48.482;9.206;2022-12-18T17:54:32;28.93;;;15.50;;
9819;SDS011;4949;48.482;9.206;2022-12-18T17:59:34;24.87;;;14.20;;
9819;SDS011;4949;48.482;9.206;2022-12-18T18:04:37;32.60;;;16.30;;
9819;SDS011;4949;48.482;9.206;2022-12-18T18:09:38;29.10;;;16.30;;
9819;SDS011;4949;48.482;9.206;2022-12-18T18:14:39;39.20;;;18.17;;
9819;SDS011;4949;48.482;9.206;2022-12-18T18:19:40;35.33;;;20.50;;
9819;SDS011;4949;48.482;9.206;2022-12-18T18:24:41;35.43;;;21.70;;
9819;SDS011;4949;48.482;9.206;2022-12-18T18:29:42;42.90;;;24.53;;
9819;SDS011;4949;48.482;9.206;2022-12-18T18:34:43;44.27;;;24.70;;
9819;SDS011;4949;48.482;9.206;2022-12-18T18:39:44;41.13;;;24.47;;
9819;SDS011;4949;48.482;9.206;2022-12-18T18:44:44;29.03;;;18.90;;
9819;SDS011;4949;48.482;9.206;2022-12-18T18:49:47;35.37;;;19.07;;
9819;SDS011;4949;48.482;9.206;2022-12-18T18:54:48;37.20;;;21.27;;
9819;SDS011;4949;48.482;9.206;2022-12-18T18:59:49;42.13;;;24.03;;
9819;SDS011;4949;48.482;9.206;2022-12-18T19:04:52;41.17;;;22.63;;
9819;SDS011;4949;48.482;9.206;2022-12-18T19:09:53;39.97;;;24.30;;
9819;SDS011;4949;48.482;9.206;2022-12-18T19:14:55;40.50;;;25.20;;
9819;SDS011;4949;48.482;9.206;2022-12-18T19:19:56;35.70;;;20.87;;
9819;SDS011;4949;48.482;9.206;2022-12-18T19:24:57;35.00;;;20.73;;
9819;SDS011;4949;48.482;9.206;2022-12-18T19:29:58;34.27;;;19.87;;
9819;SDS011;4949;48.482;9.206;2022-12-18T19:35:01;36.43;;;18.77;;
9819;SDS011;4949;48.482;9.206;2022-12-18T19:40:02;39.87;;;20.73;;
9819;SDS011;4949;48.482;9.206;2022-12-18T19:45:06;39.33;;;20.40;;
9819;SDS011;4949;48.482;9.206;2022-12-18T19:50:07;42.83;;;21.10;;
9819;SDS011;4949;48.482;9.206;2022-12-18T19:55:08;30.83;;;16.30;;
9819;SDS011;4949;48.482;9.206;2022-12-18T20:00:14;36.40;;;18.00;;
9819;SDS011;4949;48.482;9.206;2022-12-18T20:05:15;35.70;;;21.03;;
9819;SDS011;4949;48.482;9.206;2022-12-18T20:10:26;45.43;;;19.40;;
9819;SDS011;4949;48.482;9.206;2022-12-18T20:15:31;39.50;;;21.13;;
9819;SDS011;4949;48.482;9.206;2022-12-18T20:20:34;42.73;;;20.53;;
9819;SDS011;4949;48.482;9.206;2022-12-18T20:25:36;40.00;;;20.70;;
9819;SDS011;4949;48.482;9.206;2022-12-18T20:30:42;34.57;;;18.07;;
9819;SDS011;4949;48.482;9.206;2022-12-18T20:35:42;28.63;;;16.27;;
9819;SDS011;4949;48.482;9.206;2022-12-18T20:40:46;36.40;;;19.13;;
9819;SDS011;4949;48.482;9.206;2022-12-18T20:45:58;40.10;;;20.67;;
9819;SDS011;4949;48.482;9.206;2022-12-18T20:51:02;37.13;;;19.77;;
9819;SDS011;4949;48.482;9.206;2022-12-18T20:56:10;35.37;;;20.43;;
9819;SDS011;4949;48.482;9.206;2022-12-18T21:01:18;33.47;;;19.27;;
9819;SDS011;4949;48.482;9.206;2022-12-18T21:06:23;36.63;;;19.10;;
9819;SDS011;4949;48.482;9.206;2022-12-18T21:11:27;38.33;;;20.43;;
9819;SDS011;4949;48.482;9.206;2022-12-18T21:16:49;39.97;;;25.07;;
9819;SDS011;4949;48.482;9.206;2022-12-18T21:21:54;44.37;;;26.90;;
9819;SDS011;4949;48.482;9.206;2022-12-18T21:26:55;34.53;;;21.77;;
9819;SDS011;4949;48.482;9.206;2022-12-18T21:31:59;39.87;;;21.60;;
9819;SDS011;4949;48.482;9.206;2022-12-18T21:36:59;31.80;;;20.47;;
9819;SDS011;4949;48.482;9.206;2022-12-18T21:42:01;41.43;;;23.17;;
9819;SDS011;4949;48.482;9.206;2022-12-18T21:47:20;31.50;;;20.20;;
9819;SDS011;4949;48.482;9.206;2022-12-18T21:52:21;48.10;;;28.00;;
9819;SDS011;4949;48.482;9.206;2022-12-18T21:57:22;38.80;;;24.33;;
9819;SDS011;4949;48.482;9.206;2022-12-18T22:02:23;41.83;;;25.87;;
9819;SDS011;4949;48.482;9.206;2022-12-18T22:07:23;45.07;;;26.33;;
9819;SDS011;4949;48.482;9.206;2022-12-18T22:12:25;42.67;;;23.63;;
9819;SDS011;4949;48.482;9.206;2022-12-18T22:17:35;40.63;;;24.33;;
9819;SDS011;4949;48.482;9.206;2022-12-18T22:22:35;45.60;;;25.17;;
9819;SDS011;4949;48.482;9.206;2022-12-18T22:27:36;43.53;;;25.13;;
9819;SDS011;4949;48.482;9.206;2022-12-18T22:32:39;43.43;;;26.50;;
9819;SDS011;4949;48.482;9.206;2022-12-18T22:37:42;42.43;;;27.70;;
9819;SDS011;4949;48.482;9.206;2022-12-18T22:42:43;37.30;;;23.57;;
9819;SDS011;4949;48.482;9.206;2022-12-18T22:47:43;43.73;;;24.87;;
9819;SDS011;4949;48.482;9.206;2022-12-18T22:52:47;35.83;;;24.13;;
9819;SDS011;4949;48.482;9.206;2022-12-18T22:57:47;42.13;;;25.37;;
9819;SDS011;4949;48.482;9.206;2022-12-18T23:02:51;39.47;;;25.77;;
9819;SDS011;4949;48.482;9.206;2022-12-18T23:07:52;36.53;;;24.63;;
9819;SDS011;4949;48.482;9.206;2022-12-18T23:12:53;40.97;;;23.87;;
9819;SDS011;4949;48.482;9.206;2022-12-18T23:17:56;39.37;;;23.70;;
9819;SDS011;4949;48.482;9.206;2022-12-18T23:22:57;37.00;;;22.50;;
9819;SDS011;4949;48.482;9.206;2022-12-18T23:27:59;41.30;;;22.30;;
9819;SDS011;4949;48.482;9.206;2022-12-18T23:33:02;35.50;;;21.47;;
9819;SDS011;4949;48.482;9.206;2022-12-18T23:38:03;35.60;;;20.37;;
9819;SDS011;4949;48.482;9.206;2022-12-18T23:43:04;36.27;;;21.80;;
9819;SDS011;4949;48.482;9.206;2022-12-18T23:48:07;36.80;;;21.67;;
9819;SDS011;4949;48.482;9.206;2022-12-18T23:53:11;36.57;;;22.40;;
9819;SDS011;4949;48.482;9.206;2022-12-18T23:58:16;42.63;;;23.57;;
